Time;durP1;ratioP1;P1;durP2;ratioP2;P2;SDS_P1;SDS_P2;PMS_P1;PMS_P2;Temp;Humidity;BMP_temperature;BMP_pressure;BME280_temperature;BME280_humidity;BME280_pressure;Samples;Min_cycle;Max_cycle;Signal;HPM_P1;HPM_P2
2022/08/30 00:02:59;;;;;;;;;4.00;2.00;;;;;;;;4945726;28;45761;-70
2022/08/30 00:05:27;;;;;;;;;1.00;1.00;;;;;27.44;32.71;68008.41;4961483;28;45564;-70
2022/08/30 00:07:53;;;;;;;;;3.00;1.67;;;;;27.48;33.09;68023.94;4950021;28;45684;-71
2022/08/30 00:10:19;;;;;;;;;2.00;2.00;;;;;27.47;33.10;68000.47;4947133;28;45718;-71
2022/08/30 00:12:45;;;;;;;;;3.00;2.00;;;;;27.44;33.16;68024.72;4945557;28;46543;-72
2022/08/30 00:15:13;;;;;;;;;2.00;2.00;;;;;27.40;32.80;68006.47;4944930;28;45815;-71
2022/08/30 00:17:40;;;;;;;;;3.00;2.00;;;;;27.38;33.03;68001.41;4955134;28;45551;-71
2022/08/30 00:20:09;;;;;;;;;2.67;2.33;;;;;27.35;32.74;68049.50;4927006;28;45637;-71
2022/08/30 00:22:35;;;;;;;;;5.33;1.00;;;;;27.32;33.20;68016.72;4954486;28;46483;-72
2022/08/30 00:25:01;;;;;;;;;1.33;1.33;;;;;27.33;33.09;67995.59;4937214;28;45462;-71
2022/08/30 00:27:27;;;;;;;;;3.00;3.00;;;;;27.31;33.27;68010.13;4954987;28;45276;-71
2022/08/30 00:29:53;;;;;;;;;1.33;1.33;;;;;27.32;33.32;67940.09;4954932;28;45338;-72
2022/08/30 00:32:20;;;;;;;;;2.00;2.00;;;;;27.28;33.48;68020.19;4954779;28;46401;-72
2022/08/30 00:34:49;;;;;;;;;2.00;2.00;;;;;27.28;33.35;68022.34;4936677;28;45686;-71
2022/08/30 00:37:15;;;;;;;;;2.00;2.00;;;;;27.27;33.22;68007.59;4937631;28;45536;-71
2022/08/30 00:39:41;;;;;;;;;2.00;2.00;;;;;27.27;33.66;68015.72;4954930;28;45480;-71
2022/08/30 00:42:08;;;;;;;;;3.00;3.00;;;;;27.26;33.52;67952.13;4954531;28;46021;-71
2022/08/30 00:44:34;;;;;;;;;2.67;1.67;;;;;27.24;33.47;68006.81;4937597;28;45437;-71
2022/08/30 00:46:59;;;;;;;;;3.00;1.67;;;;;27.23;33.16;67976.38;4950520;28;45495;-72
2022/08/30 00:49:25;;;;;;;;;2.67;2.00;;;;;27.19;33.53;67936.38;4954955;28;45453;-72
2022/08/30 00:51:52;;;;;;;;;3.33;2.00;;;;;27.16;33.39;67938.31;4954435;28;45549;-71
2022/08/30 00:54:18;;;;;;;;;2.00;1.00;;;;;27.17;33.76;67956.34;4954497;28;45611;-71
2022/08/30 01:01:56;;;;;;;;;2.33;2.33;;;;;27.15;33.45;67916.00;5049947;28;45654;-88
2022/08/30 01:04:24;;;;;;;;;2.67;1.67;;;;;26.94;33.80;67915.97;5051547;28;45355;-89
2022/08/30 01:06:50;;;;;;;;;1.67;1.67;;;;;27.16;33.66;67924.75;5060122;23;45481;-71
2022/08/30 01:09:16;;;;;;;;;4.33;2.00;;;;;27.15;33.47;67921.44;4972567;28;45793;-71
2022/08/30 01:11:44;;;;;;;;;3.67;3.00;;;;;27.03;33.88;67920.47;4972814;28;45440;-71
2022/08/30 01:14:11;;;;;;;;;2.00;2.00;;;;;27.13;33.90;67888.69;4974931;28;45426;-71
2022/08/30 01:16:38;;;;;;;;;3.00;2.00;;;;;27.19;33.54;67881.53;4974781;28;45438;-71
2022/08/30 01:19:17;;;;;;;;;3.00;2.00;;;;;27.16;33.86;67913.91;4967437;28;45407;-71
2022/08/30 01:21:48;;;;;;;;;2.00;2.00;;;;;27.11;33.84;67938.50;4972006;28;47342;-71
2022/08/30 01:24:14;;;;;;;;;2.67;2.00;;;;;27.11;33.92;67902.63;4985198;28;45406;-71
2022/08/30 01:26:40;;;;;;;;;1.67;1.00;;;;;27.10;33.67;67877.63;4983676;28;45699;-71
2022/08/30 01:29:10;;;;;;;;;5.00;3.00;;;;;27.05;33.99;67903.78;5007179;28;45357;-71
2022/08/30 01:31:35;;;;;;;;;2.00;2.00;;;;;26.94;33.61;67875.84;4978419;28;46852;-71
2022/08/30 01:34:04;;;;;;;;;3.00;1.33;;;;;27.03;33.60;67874.91;5031023;28;45392;-71
2022/08/30 01:36:29;;;;;;;;;3.00;2.67;;;;;27.02;34.00;67876.47;5023801;28;45477;-71
2022/08/30 01:38:56;;;;;;;;;2.33;2.33;;;;;27.03;34.26;67888.47;5004264;28;45525;-71
2022/08/30 01:41:32;;;;;;;;;3.00;1.33;;;;;27.01;34.22;67958.81;4972042;28;46389;-71
2022/08/30 01:44:00;;;;;;;;;4.00;1.00;;;;;27.01;33.98;67899.13;4969578;28;45984;-70
2022/08/30 01:46:35;;;;;;;;;8.00;2.67;;;;;26.99;34.45;67867.53;5025316;28;45478;-71
2022/08/30 01:49:04;;;;;;;;;4.00;3.00;;;;;26.94;34.06;67916.53;4962567;28;45629;-71
2022/08/30 01:51:29;;;;;;;;;1.33;1.33;;;;;26.98;34.13;67838.66;4973654;28;46063;-71
2022/08/30 01:53:55;;;;;;;;;2.00;2.00;;;;;26.88;34.51;67841.75;4974214;28;45469;-71
2022/08/30 01:56:22;;;;;;;;;3.00;1.00;;;;;26.95;34.12;67874.31;4974007;28;45484;-70
2022/08/30 01:58:47;;;;;;;;;3.67;2.00;;;;;26.96;34.02;67877.59;4972977;28;45583;-70
2022/08/30 02:01:15;;;;;;;;;2.33;2.33;;;;;26.96;34.46;67883.03;4961112;28;46158;-71
2022/08/30 02:03:43;;;;;;;;;5.00;3.67;;;;;26.94;33.79;67907.81;4967754;28;45310;-71
2022/08/30 02:06:12;;;;;;;;;2.00;2.00;;;;;26.93;33.96;67869.25;4961964;28;45417;-71
2022/08/30 02:08:39;;;;;;;;;2.67;2.00;;;;;26.93;34.15;67887.69;4999699;28;45510;-71
2022/08/30 02:11:05;;;;;;;;;1.67;1.67;;;;;26.93;34.43;67855.69;5035760;28;46403;-71
2022/08/30 02:13:31;;;;;;;;;3.00;2.00;;;;;26.93;34.47;67874.69;4968197;28;45897;-71
2022/08/30 02:15:57;;;;;;;;;3.00;2.00;;;;;26.94;34.05;67867.72;4973032;28;45454;-71
2022/08/30 02:18:23;;;;;;;;;2.33;1.33;;;;;26.96;34.18;67872.19;4977106;28;45525;-71
2022/08/30 02:20:49;;;;;;;;;2.67;2.67;;;;;26.97;34.47;67826.63;4976594;28;45536;-71
2022/08/30 02:23:15;;;;;;;;;1.00;1.00;;;;;26.94;34.60;67734.19;4976785;28;45432;-71
2022/08/30 02:25:40;;;;;;;;;2.00;2.00;;;;;26.88;35.39;67630.13;4977310;28;45336;-70
2022/08/30 02:28:07;;;;;;;;;2.00;2.00;;;;;26.88;37.59;67019.22;4957156;28;45397;-71
2022/08/30 02:30:33;;;;;;;;;4.00;2.67;;;;;26.81;39.75;65132.09;4975942;28;46104;-71
2022/08/30 02:32:58;;;;;;;;;3.33;3.33;;;;;26.76;41.61;60513.56;4977281;28;45370;-72
2022/08/30 02:35:24;;;;;;;;;4.67;2.00;;;;;26.67;42.70;56770.19;4974974;28;45371;-72
2022/08/30 02:37:49;;;;;;;;;4.67;4.00;;;;;26.55;43.26;53437.06;4976623;28;45455;-72
2022/08/30 02:40:17;;;;;;;;;3.00;3.00;;;;;26.39;43.65;50493.06;4969340;28;46225;-72
2022/08/30 02:42:42;;;;;;;;;3.00;3.00;;;;;26.31;43.58;51466.22;4975823;28;45308;-72
2022/08/30 02:45:08;;;;;;;;;3.33;3.33;;;;;26.06;45.44;41596.94;4976616;28;45427;-72
2022/08/30 02:47:34;;;;;;;;;4.00;3.00;;;;;26.03;46.41;24782.03;4967701;28;45454;-72
2022/08/30 02:50:02;;;;;;;;;5.33;4.33;;;;;25.87;46.85;17237.44;4971273;28;45797;-72
2022/08/30 02:52:27;;;;;;;;;3.00;3.00;;;;;25.78;48.21;4251.44;4976720;28;45497;-72
2022/08/30 02:54:54;;;;;;;;;3.00;3.00;;;;;25.70;47.99;-180.50;4976880;28;45557;-71
2022/08/30 02:57:19;;;;;;;;;4.67;4.67;;;;;25.63;48.93;-8686.81;4965689;28;45404;-71
2022/08/30 02:59:46;;;;;;;;;3.33;3.33;;;;;25.57;50.17;-13780.34;4976065;28;45312;-72
2022/08/30 03:02:12;;;;;;;;;5.00;4.00;;;;;25.44;49.07;-8685.31;4976353;28;45362;-72
2022/08/30 03:04:38;;;;;;;;;5.33;3.00;;;;;25.51;50.31;-15475.78;4975046;28;45364;-71
2022/08/30 03:07:04;;;;;;;;;5.33;4.00;;;;;25.49;52.48;-19882.22;4975511;28;45442;-71
2022/08/30 03:09:30;;;;;;;;;4.00;3.00;;;;;25.39;52.15;-19202.06;5024433;28;47252;-71
2022/08/30 03:11:55;;;;;;;;;5.67;3.67;;;;;25.25;51.54;-18859.88;4976314;28;45708;-71
2022/08/30 03:14:21;;;;;;;;;4.00;4.00;;;;;25.09;51.81;-18517.22;4981127;28;45365;-71
2022/08/30 03:16:47;;;;;;;;;5.67;4.00;;;;;25.09;51.80;-18517.34;5025677;27;45387;-71
2022/08/30 03:19:12;;;;;;;;;7.00;4.67;;;;;25.09;50.52;-14789.72;4976931;28;46295;-71
2022/08/30 03:21:37;;;;;;;;;4.00;3.00;;;;;25.14;50.90;-15468.69;5004117;28;45351;-71
2022/08/30 03:24:03;;;;;;;;;5.67;4.00;;;;;25.13;53.41;-19874.94;4993328;28;45359;-71
2022/08/30 03:26:28;;;;;;;;;6.33;4.33;;;;;25.11;54.24;-19874.28;4976499;28;45339;-71
2022/08/30 03:28:54;;;;;;;;;5.67;3.00;;;;;25.09;52.38;-18855.91;4975836;28;46258;-71
2022/08/30 03:31:19;;;;;;;;;4.00;4.00;;;;;25.01;52.25;-19192.78;4975964;28;45363;-71
2022/08/30 03:33:45;;;;;;;;;3.67;3.67;;;;;24.90;51.75;-17158.09;4970837;28;45396;-71
2022/08/30 03:36:10;;;;;;;;;3.00;3.00;;;;;25.10;51.08;-15467.91;4974781;28;45314;-71
2022/08/30 03:38:37;;;;;;;;;4.00;2.33;;;;;25.16;50.81;-13773.69;4971481;28;48134;-71
2022/08/30 03:41:03;;;;;;;;;2.00;2.00;;;;;25.13;51.37;-14112.41;4974883;28;45238;-71
2022/08/30 03:43:29;;;;;;;;;3.67;3.00;;;;;25.10;50.88;-14111.78;4975829;28;45280;-71
2022/08/30 03:45:54;;;;;;;;;4.33;4.33;;;;;25.14;52.12;-17840.94;4976459;28;45307;-71
2022/08/30 03:48:20;;;;;;;;;4.67;4.00;;;;;25.08;52.28;-18855.66;4974450;28;46198;-71
2022/08/30 03:50:45;;;;;;;;;3.67;3.67;;;;;24.89;52.28;-17496.56;4976066;28;45518;-71
2022/08/30 03:53:11;;;;;;;;;4.00;4.00;;;;;24.97;51.21;-15804.50;4954701;28;45391;-71
2022/08/30 03:55:36;;;;;;;;;3.00;3.00;;;;;24.92;50.77;-11735.06;4975935;28;45398;-71
2022/08/30 03:58:02;;;;;;;;;4.33;4.00;;;;;24.81;51.17;-14107.06;4975606;28;45387;-71
2022/08/30 04:00:28;;;;;;;;;4.00;4.00;;;;;24.80;51.49;-16817.31;4975726;28;45402;-71
2022/08/30 04:02:53;;;;;;;;;5.67;5.00;;;;;24.80;51.31;-15123.47;4973926;28;45407;-71
2022/08/30 04:05:19;;;;;;;;;4.00;4.00;;;;;24.77;51.34;-13767.44;4967069;28;45450;-71
2022/08/30 04:07:44;;;;;;;;;4.00;4.00;;;;;24.72;51.29;-12410.66;4975654;28;46294;-71
2022/08/30 04:10:10;;;;;;;;;4.00;4.00;;;;;24.71;50.82;-12071.41;4975431;28;45433;-71
2022/08/30 04:12:35;;;;;;;;;5.00;5.00;;;;;24.67;50.42;-11053.63;4974867;28;45462;-71
2022/08/30 04:15:02;;;;;;;;;4.67;4.00;;;;;24.58;50.62;-8338.91;4975340;28;45336;-71
2022/08/30 04:17:27;;;;;;;;;3.33;3.33;;;;;24.52;50.92;-11729.91;4974247;28;45756;-71
2022/08/30 04:19:52;;;;;;;;;7.33;4.00;;;;;24.40;51.60;-12067.22;4975729;28;45335;-71
2022/08/30 04:22:18;;;;;;;;;5.00;4.00;;;;;24.39;49.39;-4943.69;4988368;28;45407;-71
2022/08/30 04:24:43;;;;;;;;;3.00;3.00;;;;;24.52;49.26;-4264.72;4974615;28;45596;-71
2022/08/30 04:27:09;;;;;;;;;5.00;3.67;;;;;24.52;50.88;-10034.50;4984790;28;46267;-71
2022/08/30 04:29:35;;;;;;;;;4.00;4.00;;;;;24.45;51.09;-10033.81;4974442;28;45275;-71
2022/08/30 04:32:00;;;;;;;;;4.33;4.33;;;;;24.44;50.67;-7998.59;4968804;28;45414;-72
2022/08/30 04:34:26;;;;;;;;;4.00;4.00;;;;;24.46;50.67;-9355.63;4975919;28;45446;-71
2022/08/30 04:36:51;;;;;;;;;7.00;4.00;;;;;24.48;49.89;-6641.38;4974309;28;45484;-72
2022/08/30 04:39:18;;;;;;;;;4.67;3.00;;;;;24.46;50.19;-7320.00;4974661;28;45408;-72
2022/08/30 04:41:43;;;;;;;;;5.33;4.00;;;;;24.43;51.15;-11050.75;4975164;28;45360;-71
2022/08/30 04:44:09;;;;;;;;;3.00;3.00;;;;;24.42;50.65;-10372.56;4969939;28;45609;-71
2022/08/30 04:46:35;;;;;;;;;4.00;4.00;;;;;24.39;50.78;-11050.31;4973913;28;46002;-71
2022/08/30 04:49:02;;;;;;;;;5.67;3.00;;;;;24.38;49.99;-6980.25;4975212;28;45298;-72
2022/08/30 04:51:27;;;;;;;;;5.33;4.00;;;;;24.39;51.25;-11050.31;4974865;28;45394;-71
2022/08/30 04:53:53;;;;;;;;;4.00;4.00;;;;;24.35;50.95;-11388.78;4975622;28;45230;-71
2022/08/30 04:56:21;;;;;;;;;5.33;3.33;;;;;24.23;50.97;-11048.41;4971301;28;46978;-71
2022/08/30 04:58:49;;;;;;;;;4.00;4.00;;;;;24.33;50.35;-9354.44;4974879;28;45375;-71
2022/08/30 05:01:19;;;;;;;;;4.33;4.33;;;;;24.27;51.48;-11048.78;4975119;28;45440;-71
2022/08/30 05:03:45;;;;;;;;;2.67;2.33;;;;;24.23;51.71;-12742.56;4970481;28;45376;-72
2022/08/30 05:06:11;;;;;;;;;3.67;3.67;;;;;24.31;50.93;-11388.22;4969784;28;47087;-70
2022/08/30 05:08:37;;;;;;;;;4.00;4.00;;;;;24.27;52.65;-16129.31;4974779;28;45658;-70
2022/08/30 05:11:04;;;;;;;;;3.00;2.00;;;;;24.23;52.34;-15790.13;4974459;28;45380;-71
2022/08/30 05:13:30;;;;;;;;;5.00;4.00;;;;;24.26;52.33;-15113.47;4973725;28;45523;-71
2022/08/30 05:15:55;;;;;;;;;3.00;3.00;;;;;24.26;51.65;-14774.91;4974699;28;46080;-71
2022/08/30 05:18:21;;;;;;;;;5.00;3.67;;;;;24.25;51.79;-12742.72;4974797;28;45294;-70
2022/08/30 05:20:46;;;;;;;;;6.33;4.00;;;;;24.23;51.88;-14435.94;4974440;28;45833;-69
2022/08/30 05:23:11;;;;;;;;;4.33;3.67;;;;;24.30;52.01;-13082.31;4975124;28;45428;-70
2022/08/30 05:25:39;;;;;;;;;4.00;4.00;;;;;24.19;52.28;-14435.25;4972658;28;46182;-71
2022/08/30 05:28:05;;;;;;;;;6.67;4.33;;;;;24.16;53.16;-17818.88;4974205;28;45374;-70
2022/08/30 05:30:35;;;;;;;;;6.00;4.33;;;;;24.14;52.19;-16126.75;4964722;28;46395;-71
2022/08/30 05:33:01;;;;;;;;;5.33;3.67;;;;;24.11;52.38;-17141.06;4972297;28;45761;-72
2022/08/30 05:35:27;;;;;;;;;4.33;4.00;;;;;24.15;51.61;-14095.88;4968198;28;45441;-72
2022/08/30 05:37:53;;;;;;;;;5.67;2.67;;;;;24.19;52.01;-15450.84;4972823;28;45335;-72
2022/08/30 05:40:19;;;;;;;;;4.67;4.00;;;;;24.21;52.85;-16804.91;4973721;28;45504;-71
2022/08/30 05:42:46;;;;;;;;;5.67;5.67;;;;;24.23;53.50;-18158.78;4970165;28;45807;-72
2022/08/30 05:45:13;;;;;;;;;5.00;5.00;;;;;24.23;52.28;-16805.34;4973149;28;45443;-72
2022/08/30 05:47:38;;;;;;;;;7.33;3.33;;;;;24.22;51.27;-12742.41;4972794;28;45471;-72
2022/08/30 05:50:08;;;;;;;;;4.00;4.00;;;;;24.21;51.59;-13419.69;4974185;28;45366;-72
2022/08/30 05:52:38;;;;;;;;;4.67;4.67;;;;;24.17;52.24;-14434.78;4974644;28;45836;-72
2022/08/30 05:55:06;;;;;;;;;5.00;4.00;;;;;24.22;51.69;-13758.53;4972766;28;46303;-72
2022/08/30 05:57:34;;;;;;;;;4.00;4.00;;;;;24.22;50.86;-9014.31;4974422;28;45661;-72
2022/08/30 06:00:04;;;;;;;;;6.00;5.00;;;;;24.23;50.26;-7997.03;4974225;28;45347;-72
2022/08/30 06:02:29;;;;;;;;;4.00;4.00;;;;;24.25;49.34;-188.09;4974418;28;45371;-72
2022/08/30 06:04:55;;;;;;;;;3.33;3.33;;;;;24.27;48.06;5594.28;4973809;28;47064;-72
2022/08/30 06:07:20;;;;;;;;;5.00;5.00;;;;;24.42;47.97;6277.56;4973628;28;45307;-72
2022/08/30 06:09:46;;;;;;;;;5.00;4.00;;;;;24.22;49.03;2871.66;4965523;28;45319;-72
2022/08/30 06:12:11;;;;;;;;;5.33;4.33;;;;;24.38;49.16;152.53;4973069;28;45522;-72
2022/08/30 06:14:38;;;;;;;;;6.00;6.00;;;;;24.41;49.23;-1206.97;4972295;28;46859;-72
2022/08/30 06:17:04;;;;;;;;;5.67;5.67;;;;;24.48;49.67;153.13;4973749;28;45424;-72
2022/08/30 06:19:29;;;;;;;;;8.33;6.00;;;;;24.54;48.89;4236.28;4972662;28;45502;-72
2022/08/30 06:21:54;;;;;;;;;5.67;4.67;;;;;24.52;48.78;4916.97;4972997;28;45389;-72
2022/08/30 06:24:20;;;;;;;;;7.00;6.67;;;;;24.58;48.33;4577.28;4973620;28;47233;-72
2022/08/30 06:26:46;;;;;;;;;6.33;5.00;;;;;24.68;48.84;3216.69;4968792;28;45381;-71
2022/08/30 06:29:14;;;;;;;;;7.33;6.00;;;;;24.76;48.71;5942.09;4973960;28;45550;-71
2022/08/30 06:31:40;;;;;;;;;6.00;5.33;;;;;24.79;47.72;7987.22;4974227;28;45358;-73
2022/08/30 06:34:06;;;;;;;;;6.00;6.00;;;;;24.76;47.13;12079.19;4970888;28;47266;-72
2022/08/30 06:36:32;;;;;;;;;6.33;4.00;;;;;24.88;46.96;14472.00;4973398;28;45405;-72
2022/08/30 06:38:59;;;;;;;;;6.00;4.33;;;;;24.89;46.40;20282.28;4973921;28;45413;-72
2022/08/30 06:41:28;;;;;;;;;4.00;4.00;;;;;24.99;46.24;22338.91;4974126;28;45409;-71
2022/08/30 06:43:55;;;;;;;;;5.00;3.00;;;;;25.02;45.54;25764.34;4967597;28;45347;-72
2022/08/30 06:46:24;;;;;;;;;5.67;4.00;;;;;25.05;45.68;26542.03;4972049;28;45342;-72
2022/08/30 06:48:50;;;;;;;;;4.33;4.33;;;;;25.11;44.89;28617.69;4973789;28;45470;-72
2022/08/30 06:51:25;;;;;;;;;5.67;4.00;;;;;25.17;45.11;26716.31;4973506;28;45299;-72
2022/08/30 06:53:50;;;;;;;;;3.33;3.33;;;;;25.26;44.97;28287.69;4960543;28;46112;-72
2022/08/30 06:56:17;;;;;;;;;4.67;3.67;;;;;25.33;44.31;33339.53;4972990;28;45428;-72
2022/08/30 06:58:44;;;;;;;;;8.33;5.00;;;;;25.35;45.06;32825.66;4988077;28;45466;-72
2022/08/30 07:01:26;;;;;;;;;5.00;5.00;;;;;25.41;44.20;34608.59;4967856;28;45427;-72
2022/08/30 07:03:52;;;;;;;;;6.33;4.00;;;;;25.51;44.21;36241.31;4976412;28;46166;-72
2022/08/30 07:06:19;;;;;;;;;6.00;6.00;;;;;25.56;44.49;34284.41;4976273;28;45464;-72
2022/08/30 07:08:45;;;;;;;;;5.67;5.00;;;;;25.60;44.30;33084.34;4975188;28;45365;-72
2022/08/30 07:11:10;;;;;;;;;9.00;3.33;;;;;25.66;43.94;34451.63;4976772;28;45371;-72
2022/08/30 07:13:37;;;;;;;;;5.00;5.00;;;;;25.66;44.09;35509.66;4976074;28;46578;-72
2022/08/30 07:16:12;;;;;;;;;5.00;5.00;;;;;25.62;43.78;37884.88;4976370;28;45327;-72
2022/08/30 07:18:50;;;;;;;;;7.33;4.00;;;;;25.75;43.13;40100.19;4976096;28;45304;-72
2022/08/30 07:21:18;;;;;;;;;7.33;4.67;;;;;25.82;43.22;40726.50;4975331;28;45636;-72
2022/08/30 07:23:44;;;;;;;;;5.33;4.00;;;;;25.90;42.86;42115.34;4961946;28;47801;-72
2022/08/30 07:26:13;;;;;;;;;4.00;4.00;;;;;26.02;42.77;40700.19;4965770;28;45513;-72
2022/08/30 07:28:41;;;;;;;;;6.00;5.00;;;;;26.14;42.89;41163.31;4968649;28;45416;-73
2022/08/30 07:31:07;;;;;;;;;5.00;4.00;;;;;26.25;43.05;41984.78;4974931;28;45515;-72
2022/08/30 07:33:33;;;;;;;;;8.67;5.67;;;;;26.35;42.49;41550.16;4957629;28;47111;-71
2022/08/30 07:35:59;;;;;;;;;5.33;3.00;;;;;26.42;42.01;44615.44;4970297;28;45372;-71
2022/08/30 07:38:27;;;;;;;;;4.33;4.00;;;;;26.46;41.91;45694.16;4975287;28;45426;-72
2022/08/30 07:40:53;;;;;;;;;5.00;5.00;;;;;26.49;41.95;44896.28;4975369;28;45521;-71
2022/08/30 07:43:18;;;;;;;;;4.67;4.00;;;;;26.53;42.06;45449.41;4975051;28;46147;-71
2022/08/30 07:45:44;;;;;;;;;5.00;5.00;;;;;26.88;41.68;44737.03;4975266;28;45385;-71
2022/08/30 07:48:11;;;;;;;;;5.00;5.00;;;;;26.95;40.23;48636.97;4961218;28;45423;-71
2022/08/30 07:50:37;;;;;;;;;4.00;4.00;;;;;27.11;40.92;46350.06;4954564;28;45444;-71
2022/08/30 07:53:03;;;;;;;;;4.67;4.67;;;;;27.19;41.04;47760.22;4969468;28;45650;-71
2022/08/30 07:55:28;;;;;;;;;4.00;4.00;;;;;27.38;40.82;47559.56;4966069;28;46052;-71
2022/08/30 07:57:53;;;;;;;;;5.33;4.00;;;;;27.53;40.09;49166.06;4973208;28;45353;-71
2022/08/30 08:00:20;;;;;;;;;8.33;5.33;;;;;27.56;39.41;50025.63;4975133;28;45395;-71
2022/08/30 08:02:45;;;;;;;;;3.33;3.33;;;;;27.72;39.59;50623.31;4970526;28;47736;-71
2022/08/30 08:05:10;;;;;;;;;5.00;5.00;;;;;27.81;39.40;50076.28;4974612;28;45337;-71
2022/08/30 08:07:36;;;;;;;;;4.00;4.00;;;;;27.77;39.19;50977.13;4969639;28;45385;-71
2022/08/30 08:10:03;;;;;;;;;5.67;4.00;;;;;28.02;39.09;51431.47;4974329;28;45531;-71
2022/08/30 08:12:28;;;;;;;;;6.00;4.33;;;;;28.13;38.77;51798.22;4973960;28;46258;-71
2022/08/30 08:14:53;;;;;;;;;4.67;4.00;;;;;28.20;38.41;53353.63;4974888;28;45318;-71
2022/08/30 08:17:19;;;;;;;;;4.00;4.00;;;;;28.28;38.49;53387.63;4974891;28;45337;-71
2022/08/30 08:19:44;;;;;;;;;4.00;4.00;;;;;28.35;38.41;52969.25;4971927;28;45498;-71
2022/08/30 08:22:10;;;;;;;;;4.67;3.67;;;;;28.38;39.01;52432.44;4974984;28;47235;-72
2022/08/30 08:24:36;;;;;;;;;5.00;5.00;;;;;28.38;38.56;52855.50;4971576;28;45741;-71
2022/08/30 08:27:01;;;;;;;;;5.00;5.00;;;;;28.44;38.58;52651.47;4969498;28;45326;-71
2022/08/30 08:29:27;;;;;;;;;5.33;4.33;;;;;28.49;38.51;52593.72;4974939;28;45469;-72
2022/08/30 08:31:53;;;;;;;;;5.33;4.67;;;;;28.58;37.93;53387.88;4974639;28;46593;-72
2022/08/30 08:34:22;;;;;;;;;4.00;4.00;;;;;28.73;37.77;53726.63;4973441;28;45383;-72
2022/08/30 08:36:48;;;;;;;;;7.00;4.33;;;;;28.77;38.15;53530.19;4965120;28;45418;-72
2022/08/30 08:39:13;;;;;;;;;7.00;6.00;;;;;28.75;38.01;53005.09;4975069;28;45437;-72
2022/08/30 08:41:49;;;;;;;;;6.67;6.67;;;;;29.49;36.74;54146.25;4974661;28;47116;-72
2022/08/30 08:44:33;;;;;;;;;6.67;5.00;;;;;30.55;35.50;54805.81;4974332;28;45475;-72
2022/08/30 08:47:12;;;;;;;;;6.00;4.00;;;;;30.92;34.93;55357.53;4973786;28;45610;-72
2022/08/30 08:49:41;;;;;;;;;6.67;5.67;;;;;30.99;34.66;56774.00;4974943;28;45499;-72
2022/08/30 08:55:04;;;;;;;;;4.00;4.00;;;;;31.42;34.67;56815.66;4970539;28;45420;-72
2022/08/30 08:57:33;;;;;;;;;5.00;4.33;;;;;31.48;33.68;57843.09;4972642;28;45664;-72
2022/08/30 08:59:59;;;;;;;;;4.67;3.67;;;;;31.79;33.60;57908.44;4974574;28;45404;-72
2022/08/30 09:02:28;;;;;;;;;7.33;5.67;;;;;31.82;33.50;58511.47;4974251;28;46022;-72
2022/08/30 09:04:57;;;;;;;;;5.00;5.00;;;;;31.86;33.73;58551.47;4974415;28;45509;-72
2022/08/30 09:07:26;;;;;;;;;4.00;4.00;;;;;32.31;33.38;58153.63;4964759;28;45451;-72
2022/08/30 09:09:52;;;;;;;;;4.33;4.33;;;;;32.68;32.25;58823.38;4975009;28;45590;-72
2022/08/30 09:12:19;;;;;;;;;4.00;4.00;;;;;33.12;32.05;58787.63;4973965;28;47085;-72
2022/08/30 09:15:16;;;;;;;;;5.00;4.67;;;;;33.06;32.56;59010.66;4974145;28;45481;-72
2022/08/30 09:17:49;;;;;;;;;8.67;4.00;;;;;32.87;32.67;59609.47;4966711;28;45405;-72
2022/08/30 09:20:33;;;;;;;;;5.00;4.00;;;;;32.44;32.89;59960.25;4973000;28;45498;-73
2022/08/30 09:23:12;;;;;;;;;4.00;4.00;;;;;32.09;33.06;60329.28;4962905;28;46481;-72
2022/08/30 09:25:48;;;;;;;;;4.00;4.00;;;;;32.01;33.03;60443.84;4973811;28;45414;-72
2022/08/30 09:28:14;;;;;;;;;7.00;5.33;;;;;31.99;33.16;60313.47;4974228;28;45534;-72
2022/08/30 09:31:14;;;;;;;;;7.33;6.33;;;;;31.96;33.59;60097.97;4972306;28;45424;-72
2022/08/30 09:33:39;;;;;;;;;5.00;5.00;;;;;31.93;33.40;60511.94;4973944;28;45615;-72
2022/08/30 09:36:39;;;;;;;;;5.00;5.00;;;;;31.91;33.11;60449.78;4972491;28;45297;-72
2022/08/30 09:39:15;;;;;;;;;5.00;5.00;;;;;31.78;33.44;60551.44;4972562;28;45600;-72
2022/08/30 09:41:44;;;;;;;;;4.00;4.00;;;;;31.72;33.99;60212.81;4969672;28;45490;-71
2022/08/30 09:44:13;;;;;;;;;6.33;5.33;;;;;31.67;34.07;60160.75;4970241;28;47143;-72
2022/08/30 09:46:44;;;;;;;;;6.00;5.00;;;;;31.73;33.90;60112.91;4960208;28;45495;-72
2022/08/30 09:49:33;;;;;;;;;5.00;5.00;;;;;31.76;33.78;60333.78;4964344;28;45389;-72
2022/08/30 09:52:22;;;;;;;;;4.33;4.33;;;;;31.74;33.95;60424.47;4965806;28;45578;-71
2022/08/30 09:55:06;;;;;;;;;5.67;4.00;;;;;31.73;33.62;60666.81;4963334;28;45553;-71
2022/08/30 09:57:35;;;;;;;;;6.00;6.00;;;;;31.86;33.78;60273.19;4967384;28;45391;-71
2022/08/30 10:00:19;;;;;;;;;8.67;7.00;;;;;31.95;34.33;59730.66;4970341;28;45353;-71
2022/08/30 10:03:23;;;;;;;;;7.00;4.00;;;;;32.04;34.16;59750.34;4968275;28;45673;-72
2022/08/30 10:05:58;;;;;;;;;7.00;4.67;;;;;31.93;33.86;60111.22;4972320;28;47157;-72
2022/08/30 10:08:45;;;;;;;;;6.00;5.00;;;;;31.99;34.34;59919.88;4971787;28;45381;-70
2022/08/30 10:11:22;;;;;;;;;6.00;4.00;;;;;32.22;33.72;59691.84;4972629;28;45664;-69
2022/08/30 10:14:00;;;;;;;;;4.33;4.33;;;;;32.36;33.28;60141.00;4970642;28;45464;-74
2022/08/30 10:16:52;;;;;;;;;7.33;6.67;;;;;32.43;33.83;59464.38;4970887;28;45706;-73
2022/08/30 10:19:30;;;;;;;;;4.33;4.33;;;;;32.52;32.94;60192.00;4960348;28;45455;-73
2022/08/30 10:22:07;;;;;;;;;6.00;4.00;;;;;32.55;33.25;59971.63;4961534;28;45373;-72
2022/08/30 10:24:58;;;;;;;;;7.00;4.33;;;;;32.53;33.16;60127.50;4968668;28;45461;-72
2022/08/30 10:27:40;;;;;;;;;5.00;5.00;;;;;32.55;33.13;60110.94;4961078;28;45518;-73
2022/08/30 10:30:15;;;;;;;;;6.67;5.67;;;;;32.79;33.10;59968.00;4967967;28;45356;-73
2022/08/30 10:33:03;;;;;;;;;6.00;6.00;;;;;32.89;33.19;59961.88;4963282;28;45400;-73
2022/08/30 10:35:37;;;;;;;;;4.00;4.00;;;;;32.84;32.83;60420.88;4972679;28;45430;-74
2022/08/30 10:38:09;;;;;;;;;4.33;4.33;;;;;32.91;32.28;60622.75;4969157;28;46547;-73
2022/08/30 10:43:37;;;;;;;;;6.00;6.00;;;;;32.80;32.86;60693.31;4966630;28;45474;-73
2022/08/30 10:46:10;;;;;;;;;6.00;5.00;;;;;32.77;32.24;61059.72;4972185;28;45567;-71
2022/08/30 10:48:42;;;;;;;;;5.00;5.00;;;;;32.64;32.20;61390.47;4971919;28;46380;-73
2022/08/30 10:51:35;;;;;;;;;5.00;5.00;;;;;32.66;32.29;61501.91;4971457;28;45476;-71
2022/08/30 10:54:10;;;;;;;;;5.00;5.00;;;;;32.62;32.13;61325.50;4973081;28;45491;-72
2022/08/30 10:56:40;;;;;;;;;4.00;4.00;;;;;32.71;33.07;60957.25;4975046;28;45697;-73
2022/08/30 10:59:06;;;;;;;;;7.00;5.67;;;;;32.81;32.53;61085.25;4972392;28;46081;-71
2022/08/30 11:01:34;;;;;;;;;7.00;5.67;;;;;32.79;32.72;61053.09;4966772;28;45719;-72
2022/08/30 11:04:34;;;;;;;;;5.00;4.00;;;;;32.66;32.94;60731.16;4968636;28;45333;-73
2022/08/30 11:07:11;;;;;;;;;6.67;4.00;;;;;32.51;33.10;61076.72;4967189;28;45483;-76
2022/08/30 11:10:14;;;;;;;;;7.00;6.33;;;;;32.33;34.43;60192.50;4965493;28;45477;-74
2022/08/30 11:12:54;;;;;;;;;7.00;7.00;;;;;32.19;34.05;60737.81;4966400;28;45592;-76
2022/08/30 11:15:28;;;;;;;;;6.00;6.00;;;;;32.07;33.62;60884.19;4968744;28;45839;-73
2022/08/30 11:18:09;;;;;;;;;8.00;6.67;;;;;32.02;34.28;60534.97;4968261;28;45672;-76
2022/08/30 11:20:48;;;;;;;;;5.00;5.00;;;;;31.89;34.03;60770.34;4971431;28;46389;-76
2022/08/30 11:23:17;;;;;;;;;9.67;6.67;;;;;31.88;33.87;61337.06;4970946;28;45519;-75
2022/08/30 11:25:54;;;;;;;;;6.00;4.67;;;;;31.75;34.16;61121.41;4968259;28;45511;-74
2022/08/30 11:28:45;;;;;;;;;6.33;5.00;;;;;31.74;34.19;61060.31;4965755;28;46020;-76
2022/08/30 11:31:33;;;;;;;;;6.33;6.33;;;;;31.71;34.36;61300.06;4990322;28;45477;-75
2022/08/30 11:33:59;;;;;;;;;5.67;5.67;;;;;31.94;34.77;59718.75;4991099;28;45624;-75
2022/08/30 11:36:27;;;;;;;;;7.00;6.00;;;;;32.05;33.92;60619.97;4992724;28;45472;-76
2022/08/30 11:38:53;;;;;;;;;5.33;5.33;;;;;32.41;33.14;60893.59;4993951;28;45531;-75
2022/08/30 11:41:35;;;;;;;;;6.00;6.00;;;;;32.06;33.94;60836.19;4992908;28;45718;-76
2022/08/30 11:44:20;;;;;;;;;6.67;5.67;;;;;31.98;33.84;61314.31;4976617;28;46472;-75
2022/08/30 11:46:46;;;;;;;;;6.33;5.33;;;;;32.04;33.84;60894.69;4992924;28;45548;-76
2022/08/30 11:49:29;;;;;;;;;6.00;6.00;;;;;32.06;34.31;60505.84;4977862;28;45474;-76
2022/08/30 11:52:00;;;;;;;;;6.00;6.00;;;;;32.10;34.09;60766.66;4993870;28;46284;-76
2022/08/30 11:54:35;;;;;;;;;7.00;5.33;;;;;32.01;33.81;60951.09;4977292;28;45836;-75